createdAt,value
2023-02-23T00:00:34.884Z,27.21
2023-02-23T00:03:10.508Z,28.28
2023-02-23T00:20:46.142Z,29.49
2023-02-23T00:23:29.315Z,28.54
2023-02-23T00:26:03.901Z,28.54
2023-02-23T00:28:39.583Z,28.54
2023-02-23T00:41:09.744Z,31.05
2023-02-23T00:46:46.417Z,32.81
2023-02-23T00:49:14.447Z,33.53
2023-02-23T00:51:50.671Z,33.47
2023-02-23T00:54:29.203Z,33.71
2023-02-23T00:57:03.808Z,33.09
2023-02-23T00:59:39.778Z,33.27
2023-02-23T01:02:20.896Z,32.99
2023-02-23T01:07:43.950Z,33.22
2023-02-23T01:13:05.301Z,31.50
2023-02-23T01:15:33.906Z,31.06
2023-02-23T01:18:12.349Z,30.05
2023-02-23T01:20:42.393Z,28.02
2023-02-23T01:23:16.909Z,28.58
2023-02-23T01:28:42.928Z,28.51
2023-02-23T01:31:19.024Z,28.60
2023-02-23T01:33:52.276Z,28.12
2023-02-23T01:36:26.452Z,28.83
2023-02-23T01:38:56.748Z,28.86
2023-02-23T01:41:29.419Z,28.15
2023-02-23T01:44:07.030Z,27.72
2023-02-23T01:52:56.001Z,28.04
2023-02-23T01:55:37.355Z,27.58
2023-02-23T01:58:13.410Z,27.32
2023-02-23T02:00:45.089Z,27.96
2023-02-23T02:03:18.707Z,27.44
2023-02-23T02:05:49.305Z,27.32
2023-02-23T02:08:19.897Z,27.29
2023-02-23T02:17:43.430Z,27.23
2023-02-23T02:20:10.654Z,27.60
2023-02-23T02:22:43.449Z,26.89
2023-02-23T02:25:14.153Z,29.25
2023-02-23T02:27:44.339Z,29.20
2023-02-23T02:30:20.918Z,28.34
2023-02-23T02:32:56.254Z,27.54
2023-02-23T02:35:35.319Z,27.79
2023-02-23T02:38:02.376Z,28.18
2023-02-23T02:40:31.353Z,28.87
2023-02-23T02:43:00.133Z,29.16
2023-02-23T02:45:35.945Z,29.24
2023-02-23T02:48:06.382Z,29.20
2023-02-23T02:50:37.356Z,29.43
2023-02-23T02:53:04.589Z,28.97
2023-02-23T02:55:35.393Z,28.44
2023-02-23T02:58:02.646Z,28.61
2023-02-23T03:00:33.379Z,29.30
2023-02-23T03:02:59.905Z,28.21
2023-02-23T03:08:12.492Z,28.09
2023-02-23T03:13:24.983Z,27.82
2023-02-23T03:15:58.470Z,28.27
2023-02-23T03:18:26.209Z,28.32
2023-02-23T03:20:53.212Z,28.23
2023-02-23T03:23:21.227Z,28.27
2023-02-23T03:25:49.741Z,28.57
2023-02-23T03:28:30.508Z,28.85
2023-02-23T03:31:01.127Z,28.95
2023-02-23T03:36:17.439Z,27.99
2023-02-23T03:38:48.539Z,27.53
2023-02-23T03:41:28.008Z,27.60
2023-02-23T03:43:55.492Z,28.29
2023-02-23T03:49:25.500Z,28.16
2023-02-23T03:52:02.096Z,27.53
2023-02-23T03:54:33.605Z,28.39
2023-02-23T03:57:02.038Z,28.52
2023-02-23T03:59:31.035Z,28.82
2023-02-23T04:02:04.125Z,28.02
2023-02-23T04:04:36.762Z,27.85
2023-02-23T04:07:08.138Z,27.24
2023-02-23T04:09:38.248Z,27.09
2023-02-23T04:12:05.259Z,27.28
2023-02-23T04:14:32.313Z,27.83
2023-02-23T04:16:59.349Z,27.86
2023-02-23T04:19:29.195Z,27.03
2023-02-23T04:21:58.393Z,27.40
2023-02-23T04:24:34.039Z,26.87
2023-02-23T04:27:04.583Z,27.05
2023-02-23T04:29:31.764Z,26.17
2023-02-23T04:31:58.450Z,27.07
2023-02-23T04:34:25.509Z,27.87
2023-02-23T04:36:59.527Z,27.87
2023-02-23T04:39:31.220Z,27.25
2023-02-23T04:41:58.564Z,27.59
2023-02-23T04:44:30.545Z,26.36
2023-02-23T04:46:59.595Z,27.41
2023-02-23T04:49:29.783Z,27.53
2023-02-23T04:52:05.063Z,27.26
2023-02-23T04:54:38.314Z,26.44
2023-02-23T04:57:07.852Z,26.41
2023-02-23T05:02:42.509Z,27.82
2023-02-23T05:05:19.870Z,27.43
2023-02-23T05:30:18.380Z,27.32
2023-02-23T05:32:52.132Z,27.65
2023-02-23T05:35:20.069Z,27.48
2023-02-23T07:27:45.617Z,30.13
2023-02-23T07:54:15.725Z,31.50
2023-02-23T07:56:46.306Z,33.76
2023-02-23T07:59:14.196Z,32.88
2023-02-23T08:01:41.542Z,30.19
2023-02-23T08:04:21.317Z,29.15
2023-02-23T08:06:48.457Z,28.79
2023-02-23T08:09:16.265Z,28.13
2023-02-23T08:11:43.932Z,28.70
2023-02-23T08:14:11.467Z,27.71
2023-02-23T08:16:40.962Z,30.39
2023-02-23T08:19:08.055Z,28.98
2023-02-23T08:21:38.831Z,30.08
2023-02-23T08:24:08.626Z,25.63
2023-02-23T08:26:40.309Z,24.57
2023-02-23T08:29:07.437Z,27.26
2023-02-23T08:34:20.789Z,26.96
2023-02-23T08:36:50.680Z,27.40
2023-02-23T08:39:17.580Z,28.32
2023-02-23T08:41:49.704Z,27.93
2023-02-23T08:44:18.206Z,27.84
2023-02-23T08:46:45.970Z,29.49
2023-02-23T08:49:18.874Z,29.31
2023-02-23T08:51:46.216Z,29.53
2023-02-23T08:54:13.775Z,30.94
2023-02-23T08:56:40.826Z,31.68
2023-02-23T08:59:10.062Z,30.64
2023-02-23T09:01:41.057Z,30.05
2023-02-23T09:06:48.670Z,30.22
2023-02-23T09:09:15.826Z,29.63
2023-02-23T09:11:42.871Z,28.90
2023-02-23T09:14:09.924Z,29.45
2023-02-23T09:16:37.831Z,30.87
2023-02-23T09:19:04.668Z,31.52
2023-02-23T09:21:31.463Z,31.49
2023-02-23T09:23:58.991Z,32.10
2023-02-23T09:26:26.993Z,31.77
2023-02-23T09:28:57.784Z,30.83
2023-02-23T09:31:25.031Z,31.99
2023-02-23T09:33:52.865Z,31.47
2023-02-23T09:36:22.102Z,31.75
2023-02-23T09:38:49.101Z,33.04
2023-02-23T09:41:16.156Z,31.82
2023-02-23T09:43:43.020Z,31.95
2023-02-23T09:46:10.071Z,30.96
2023-02-23T09:48:44.608Z,30.04
2023-02-23T09:51:15.647Z,28.44
2023-02-23T09:56:32.945Z,27.54
2023-02-23T09:59:00.533Z,29.32
2023-02-23T10:01:32.496Z,30.29
2023-02-23T10:04:00.158Z,30.47
2023-02-23T10:06:27.829Z,31.38
2023-02-23T10:08:56.968Z,30.17
2023-02-23T10:11:24.141Z,28.91
2023-02-23T10:13:54.551Z,29.06
2023-02-23T10:16:26.074Z,28.04
2023-02-23T10:18:53.920Z,28.53
2023-02-23T10:21:30.602Z,27.21
2023-02-23T10:23:57.401Z,28.95
2023-02-23T10:26:33.154Z,28.84
2023-02-23T10:29:02.100Z,29.20
2023-02-23T10:31:29.087Z,28.37
2023-02-23T10:34:02.511Z,28.16
2023-02-23T10:36:31.091Z,28.42
2023-02-23T10:39:02.961Z,29.08
2023-02-23T10:41:29.707Z,28.32
2023-02-23T10:44:02.634Z,29.18
2023-02-23T10:46:38.577Z,28.18
2023-02-23T10:49:05.805Z,29.02
2023-02-23T10:51:36.163Z,29.14
2023-02-23T10:54:08.032Z,28.24
2023-02-23T10:56:46.632Z,29.12
2023-02-23T10:59:22.582Z,29.22
2023-02-23T11:02:01.924Z,29.02
2023-02-23T11:04:31.943Z,28.59
2023-02-23T11:07:19.797Z,28.63
2023-02-23T11:15:14.146Z,27.19
2023-02-23T11:17:42.636Z,27.19
2023-02-23T11:20:13.121Z,26.91
2023-02-23T11:22:57.119Z,26.83
2023-02-23T11:25:27.274Z,27.24
2023-02-23T11:27:55.070Z,28.51
2023-02-23T11:30:24.564Z,27.52
2023-02-23T11:32:54.167Z,27.13
2023-02-23T11:35:20.974Z,27.55
2023-02-23T11:37:48.928Z,27.50
2023-02-23T11:40:19.450Z,28.16
2023-02-23T11:42:55.108Z,27.98
2023-02-23T11:45:22.336Z,26.65
2023-02-23T11:48:01.367Z,27.71
2023-02-23T11:50:28.511Z,27.94
2023-02-23T11:52:56.263Z,26.84
2023-02-23T11:55:26.826Z,27.39
2023-02-23T11:57:56.720Z,27.42
2023-02-23T12:00:26.152Z,27.10
2023-02-23T12:03:00.402Z,27.61
2023-02-23T12:05:30.505Z,27.86
2023-02-23T12:07:58.344Z,28.62
2023-02-23T12:10:29.921Z,28.24
2023-02-23T12:12:57.639Z,27.94
2023-02-23T12:15:26.931Z,27.70
2023-02-23T12:17:56.028Z,28.14
2023-02-23T12:20:22.990Z,28.05
2023-02-23T12:22:49.854Z,28.70
2023-02-23T12:25:17.762Z,28.20
2023-02-23T12:27:44.524Z,27.78
2023-02-23T12:30:11.557Z,27.59
2023-02-23T12:32:38.680Z,27.80
2023-02-23T12:35:09.049Z,27.51
2023-02-23T12:37:39.871Z,27.52
2023-02-23T12:40:07.221Z,28.01
2023-02-23T12:42:36.301Z,28.10
2023-02-23T12:45:03.407Z,27.94
2023-02-23T12:47:30.570Z,27.64
2023-02-23T12:50:04.784Z,28.20
2023-02-23T12:52:31.522Z,28.24
2023-02-23T12:54:59.132Z,27.85
2023-02-23T12:57:27.620Z,27.29
2023-02-23T12:59:55.717Z,27.34
2023-02-23T13:02:27.695Z,28.27
2023-02-23T13:05:03.683Z,27.34
2023-02-23T13:07:31.384Z,27.31
2023-02-23T13:09:58.285Z,26.33
2023-02-23T13:12:25.300Z,26.56
2023-02-23T13:14:56.076Z,30.45
2023-02-23T13:17:27.189Z,26.55
2023-02-23T13:19:54.289Z,25.27
2023-02-23T13:22:22.231Z,25.34
2023-02-23T13:24:52.079Z,25.00
2023-02-23T13:27:19.117Z,24.60
2023-02-23T13:29:46.177Z,25.09
2023-02-23T13:32:13.420Z,24.33
2023-02-23T13:34:40.580Z,24.45
2023-02-23T13:37:07.828Z,24.94
2023-02-23T13:39:34.803Z,23.93
2023-02-23T13:42:04.202Z,23.56
2023-02-23T13:44:32.284Z,22.76
2023-02-23T13:46:59.288Z,22.40
2023-02-23T13:49:27.944Z,22.33
2023-02-23T13:51:55.632Z,23.05
2023-02-23T13:54:27.130Z,22.10
2023-02-23T13:56:56.876Z,23.62
2023-02-23T13:59:23.919Z,22.47
2023-02-23T14:01:51.093Z,20.37
2023-02-23T14:04:28.196Z,19.73
2023-02-23T14:07:04.957Z,20.23
2023-02-23T14:09:33.545Z,20.03
2023-02-23T14:12:02.272Z,19.23
2023-02-23T14:14:31.069Z,20.65
2023-02-23T14:16:58.698Z,20.58
2023-02-23T14:19:28.488Z,21.55
2023-02-23T14:21:55.512Z,21.10
2023-02-23T14:27:14.563Z,20.19
2023-02-23T14:29:42.152Z,19.72
2023-02-23T14:34:53.997Z,19.79
2023-02-23T14:37:41.712Z,19.53
2023-02-23T14:40:15.359Z,18.84
2023-02-23T14:43:04.613Z,19.47
2023-02-23T14:45:32.623Z,19.22
2023-02-23T14:48:02.553Z,19.99
2023-02-23T14:50:30.417Z,19.62
2023-02-23T14:55:49.188Z,19.52
2023-02-23T15:04:43.725Z,19.75
2023-02-23T15:07:16.682Z,19.21
2023-02-23T15:09:47.414Z,19.78
2023-02-23T15:12:16.614Z,19.87
2023-02-23T15:14:43.965Z,19.56
2023-02-23T15:17:16.920Z,20.16
2023-02-23T15:19:44.350Z,20.17
2023-02-23T15:22:15.413Z,20.20
2023-02-23T15:24:48.789Z,20.71
2023-02-23T15:27:15.750Z,20.68
2023-02-23T15:29:42.885Z,20.07
2023-02-23T15:32:10.597Z,20.28
2023-02-23T15:34:39.580Z,19.92
2023-02-23T15:37:08.427Z,19.46
2023-02-23T15:42:32.330Z,20.91
2023-02-23T15:45:00.401Z,21.15
2023-02-23T15:47:34.854Z,21.02
2023-02-23T15:50:03.317Z,20.93
2023-02-23T15:52:30.504Z,20.78
2023-02-23T15:54:58.056Z,20.92
2023-02-23T15:57:24.737Z,21.07
2023-02-23T15:59:51.627Z,20.70
2023-02-23T16:02:19.500Z,21.55
2023-02-23T16:04:48.395Z,22.18
2023-02-23T16:07:16.267Z,20.39
2023-02-23T16:09:43.978Z,21.55
2023-02-23T16:12:10.762Z,21.64
2023-02-23T16:14:37.637Z,21.15
2023-02-23T16:17:11.427Z,21.62
2023-02-23T16:19:39.473Z,22.05
2023-02-23T16:22:06.794Z,21.67
2023-02-23T16:24:37.217Z,21.86
2023-02-23T16:27:04.084Z,21.94
2023-02-23T16:29:30.670Z,22.57
2023-02-23T16:31:57.992Z,22.84
2023-02-23T16:34:26.685Z,22.48
2023-02-23T16:36:57.200Z,23.18
2023-02-23T16:48:26.119Z,24.60
2023-02-23T16:50:52.941Z,25.17
2023-02-23T16:53:22.072Z,23.63
2023-02-23T16:55:49.322Z,23.52
2023-02-23T16:58:18.289Z,23.21
2023-02-23T17:00:47.893Z,23.26
2023-02-23T17:03:19.840Z,22.91
2023-02-23T17:05:48.937Z,22.84
2023-02-23T17:08:16.025Z,23.88
2023-02-23T17:10:53.813Z,24.61
2023-02-23T17:13:22.528Z,22.89
2023-02-23T17:15:51.356Z,23.42
2023-02-23T17:18:18.428Z,23.65
2023-02-23T17:20:46.037Z,23.13
2023-02-23T17:23:15.425Z,23.38
2023-02-23T17:25:44.231Z,22.62
2023-02-23T17:28:11.475Z,23.46
2023-02-23T17:30:38.609Z,24.54
2023-02-23T17:33:07.243Z,24.49
2023-02-23T17:35:36.572Z,24.03
2023-02-23T17:38:05.142Z,24.41
2023-02-23T17:40:41.085Z,24.16
2023-02-23T17:43:07.968Z,24.64
2023-02-23T17:45:56.492Z,24.47
2023-02-23T17:48:22.992Z,23.20
2023-02-23T17:59:42.620Z,24.60
2023-02-23T20:03:16.836Z,20.81
2023-02-23T20:05:43.473Z,32.40
2023-02-23T20:08:10.351Z,24.76
2023-02-23T20:10:39.023Z,22.24
2023-02-23T20:13:06.138Z,22.38
2023-02-23T20:15:33.651Z,24.64
2023-02-23T20:18:00.537Z,27.95
2023-02-23T20:20:27.101Z,28.54
2023-02-23T20:22:53.717Z,27.58
2023-02-23T20:25:21.244Z,27.79
2023-02-23T20:27:47.754Z,26.91
2023-02-23T20:30:14.227Z,26.58
2023-02-23T20:32:40.841Z,25.71
2023-02-23T20:35:08.559Z,25.90
2023-02-23T20:37:35.107Z,26.82
2023-02-23T20:40:01.919Z,26.35
2023-02-23T20:42:28.422Z,27.44
2023-02-23T20:44:55.281Z,28.87
2023-02-23T20:47:22.039Z,27.73
2023-02-23T20:49:49.248Z,27.53
2023-02-23T20:52:15.842Z,26.52
2023-02-23T20:54:42.491Z,26.43
2023-02-23T20:57:09.277Z,25.65
2023-02-23T20:59:36.088Z,26.53
2023-02-23T21:02:02.888Z,25.43
2023-02-23T21:04:30.956Z,26.67
2023-02-23T21:06:57.535Z,23.59
2023-02-23T21:09:24.377Z,23.30
2023-02-23T21:11:50.852Z,21.70
2023-02-23T21:14:17.697Z,21.77
2023-02-23T23:00:46.430Z,22.47
2023-02-23T23:03:19.380Z,21.44
2023-02-23T23:05:55.766Z,21.94
2023-02-23T23:08:36.198Z,21.85
2023-02-23T23:11:07.582Z,22.24
2023-02-23T23:13:44.719Z,21.80
2023-02-23T23:16:25.563Z,21.72
2023-02-23T23:18:57.875Z,21.77
2023-02-23T23:21:25.130Z,22.28
2023-02-23T23:23:56.392Z,21.68
2023-02-23T23:29:41.829Z,22.01
2023-02-23T23:32:09.488Z,22.24
2023-02-23T23:34:36.767Z,21.30
2023-02-23T23:37:04.334Z,22.16
2023-02-23T23:39:31.456Z,22.15
2023-02-23T23:41:58.101Z,22.83
2023-02-23T23:44:27.988Z,22.26
2023-02-23T23:46:54.770Z,21.85
2023-02-23T23:49:25.521Z,20.71
2023-02-23T23:51:53.272Z,21.34
2023-02-23T23:54:21.136Z,21.12
2023-02-23T23:56:48.203Z,21.13
2023-02-23T23:59:19.095Z,21.72
